Cranbury, NJ

2:03 AM EDT on May 23, 2015 (GMT -0400)
Cranbury, NJ | | Change Station
CLOSE
Current Station
Personal Weather Station
Location: Cranbury, NJ
Elevation: 125 ft
Nearby Weather Stations

Elev 125 ft 40.30 °N, 74.52 °W | Updated 22 seconds ago

Clear
Clear
51.3 °F
Feels Like 51.3 °F
N
0.0
Wind Variable Wind from SSE
Gusts 2.2 mph

Today
High -- | Low -- °F
--% Chance of Precip.
Yesterday
High -- | Low -- °F
Precip. -- in
5:35 AM 8:14 PM
Waxing Crescent, 27% visible
Pressure 30.21 in
Visibility 10.0 miles
Clouds Clear
Dew Point 35 °F
Humidity 54%
Rainfall 0.00 in
Snow Depth Not available.
UV 0 out of 12
Pollen 9.20 out of 12
Air Quality Not available.
Flu Activity Sporadic
METAR KTTN 230553Z AUTO 34004KT 10SM CLR 11/02 A3023 RMK AO2 SLP229 T01110022 10194 20111 53028

More Conditions Fewer Conditions

Pressure 30.21 in
Visibility 10.0 miles
Clouds Clear
Dew Point 35 °F
Humidity 54%
Rainfall 0.00 in
Snow Depth Not available.
UV 0 out of 12
Pollen 9.20 out of 12
Air Quality Not available.
Flu Activity Sporadic
METAR KTTN 230553Z AUTO 34004KT 10SM CLR 11/02 A3023 RMK AO2 SLP229 T01110022 10194 20111 53028

More Conditions Fewer Conditions

10-Day Weather Forecast

Almanac

Astronomy

May. 23, 2015 Rise Set
Actual Time
Civil Twilight
Nautical Twilight
Astronomical Twilight
Moon
Length of Visible Light
Length of Day
Tomorrow will be .
, % of the Moon is Illuminated

Today's Extremes

State Highs State Lows

Community

WunderPhotos

Upload Photos

1,823,393 photos uploaded!

WunderBlogs® & News

Nearby

Air Quality

  Air Quality AQ Index Pollutant
Not available.

Snow Depth

Station Depth Elevation

Earthquake Activity

City Distance Mag. Time & Date
Minimum magnitude displayed is 2.5.

Coastal Water Temperatures

Place Temperature

Stations

Nearby Weather Stations

Station Location Temp. Windchill Dew Point Humidity Wind Precip. Elev Updated Type